Time;durP1;ratioP1;P1;durP2;ratioP2;P2;SDS_P1;SDS_P2;PMS_P1;PMS_P2;Temp;Humidity;BMP_temperature;BMP_pressure;BME280_temperature;BME280_humidity;BME280_pressure;Samples;Min_cycle;Max_cycle;Signal;HPM_P1;HPM_P2
2024/01/07 00:01:53;;;;;;;23.33;7.73;;;2.30;99.90;;;;;;5032424;28;20025;-51
2024/01/07 00:04:19;;;;;;;22.60;8.43;;;2.20;99.90;;;;;;5032317;28;20512;-50
2024/01/07 00:06:46;;;;;;;23.83;8.47;;;2.20;99.90;;;;;;5032476;28;20061;-51
2024/01/07 00:09:12;;;;;;;21.57;7.70;;;2.30;99.90;;;;;;5032124;28;20029;-50
2024/01/07 00:11:38;;;;;;;22.73;7.87;;;2.20;99.90;;;;;;5032303;28;20041;-51
2024/01/07 00:14:04;;;;;;;27.87;8.47;;;2.30;99.90;;;;;;5032616;28;20068;-50
2024/01/07 00:16:30;;;;;;;20.03;6.90;;;2.30;99.90;;;;;;5032192;28;20029;-49
2024/01/07 00:18:55;;;;;;;18.27;7.20;;;2.20;99.90;;;;;;5031779;28;20064;-52
2024/01/07 00:21:21;;;;;;;15.90;6.43;;;2.20;99.90;;;;;;5032101;28;20021;-51
2024/01/07 00:23:47;;;;;;;19.10;6.83;;;2.20;99.90;;;;;;5032121;28;20112;-48
2024/01/07 00:26:12;;;;;;;18.23;6.33;;;2.10;99.90;;;;;;5032098;28;20116;-50
2024/01/07 00:28:38;;;;;;;19.03;6.60;;;2.10;99.90;;;;;;5031891;28;20025;-51
2024/01/07 00:31:04;;;;;;;17.13;6.30;;;2.10;99.90;;;;;;5014363;28;20402;-52
2024/01/07 00:33:31;;;;;;;19.43;8.10;;;2.10;99.90;;;;;;5031864;28;20028;-54
2024/01/07 00:35:57;;;;;;;16.57;7.03;;;2.10;99.90;;;;;;5030131;28;20029;-54
2024/01/07 00:38:22;;;;;;;16.87;6.00;;;2.10;99.90;;;;;;5030687;28;20037;-55
2024/01/07 00:40:48;;;;;;;15.10;6.20;;;2.10;99.90;;;;;;5031802;28;20071;-54
2024/01/07 00:43:14;;;;;;;14.40;5.87;;;2.00;99.90;;;;;;5032062;28;20029;-53
2024/01/07 00:45:39;;;;;;;19.53;7.03;;;2.00;99.90;;;;;;5032065;28;20025;-52
2024/01/07 00:48:05;;;;;;;18.77;6.87;;;2.10;99.90;;;;;;5031900;28;20195;-52
2024/01/07 00:50:31;;;;;;;19.67;7.23;;;2.00;99.90;;;;;;5014115;28;20041;-53
2024/01/07 00:52:56;;;;;;;20.30;7.20;;;2.00;99.90;;;;;;5032108;28;20037;-53
2024/01/07 00:55:23;;;;;;;14.17;6.67;;;2.10;99.90;;;;;;5030628;28;20148;-52
2024/01/07 00:57:49;;;;;;;19.73;8.00;;;2.10;99.90;;;;;;5031743;28;20414;-54
2024/01/07 01:00:15;;;;;;;18.73;7.10;;;2.10;99.90;;;;;;5013855;28;20029;-55
2024/01/07 01:02:41;;;;;;;20.63;7.13;;;2.00;99.90;;;;;;5031670;28;20100;-55
2024/01/07 01:05:07;;;;;;;18.03;7.50;;;2.00;99.90;;;;;;5030420;28;20049;-52
2024/01/07 01:07:32;;;;;;;20.40;7.80;;;2.00;99.90;;;;;;5014031;28;20032;-54
2024/01/07 01:09:58;;;;;;;20.47;7.53;;;2.00;99.90;;;;;;5031543;28;20595;-54
2024/01/07 01:12:24;;;;;;;23.27;7.60;;;2.10;99.90;;;;;;5030349;28;20116;-55
2024/01/07 01:14:50;;;;;;;19.20;7.30;;;2.10;99.90;;;;;;5014063;28;20029;-52
2024/01/07 01:17:16;;;;;;;15.37;6.87;;;2.10;99.90;;;;;;5030213;28;20037;-50
2024/01/07 01:19:41;;;;;;;16.97;6.37;;;2.10;99.90;;;;;;5013485;28;20037;-53
2024/01/07 01:22:07;;;;;;;18.23;6.70;;;2.10;99.90;;;;;;5030276;28;20091;-55
2024/01/07 01:24:32;;;;;;;16.17;6.80;;;2.00;99.90;;;;;;5013854;28;20048;-51
2024/01/07 01:26:59;;;;;;;16.80;6.60;;;2.10;99.90;;;;;;5031493;28;20472;-54
2024/01/07 01:29:25;;;;;;;16.03;6.60;;;2.00;99.90;;;;;;5031254;28;20072;-51
2024/01/07 01:31:50;;;;;;;15.43;6.97;;;2.00;99.90;;;;;;5031380;28;20050;-50
2024/01/07 01:34:16;;;;;;;16.27;6.77;;;2.00;99.90;;;;;;5031416;28;20462;-51
2024/01/07 01:36:42;;;;;;;20.17;6.90;;;2.00;99.90;;;;;;5013595;28;20029;-54
2024/01/07 01:39:07;;;;;;;15.03;6.53;;;2.00;99.90;;;;;;5029667;28;20504;-53
2024/01/07 01:41:33;;;;;;;18.83;7.67;;;2.00;99.90;;;;;;5031201;28;20029;-53
2024/01/07 01:44:00;;;;;;;21.37;7.30;;;2.00;99.90;;;;;;5031432;28;20029;-54
2024/01/07 01:46:26;;;;;;;20.63;7.80;;;2.00;99.90;;;;;;5015103;28;20135;-53
2024/01/07 01:48:52;;;;;;;16.57;7.50;;;2.00;99.90;;;;;;5033487;28;20029;-57
2024/01/07 01:51:18;;;;;;;18.43;7.53;;;2.00;99.90;;;;;;5034970;28;20052;-55
2024/01/07 01:53:45;;;;;;;17.93;7.93;;;2.00;99.90;;;;;;5034895;28;20112;-53
2024/01/07 01:56:12;;;;;;;21.70;7.37;;;1.90;99.90;;;;;;5017078;28;20179;-55
2024/01/07 01:58:37;;;;;;;16.80;7.67;;;1.90;99.90;;;;;;5016834;28;20034;-53
2024/01/07 02:01:04;;;;;;;20.40;8.17;;;1.90;99.90;;;;;;5017047;28;20585;-54
2024/01/07 02:03:29;;;;;;;19.57;7.53;;;1.90;99.90;;;;;;5033440;28;20463;-53
2024/01/07 02:05:56;;;;;;;17.60;6.57;;;1.90;99.90;;;;;;5033681;28;20038;-54
2024/01/07 02:08:23;;;;;;;20.73;7.70;;;1.90;99.90;;;;;;5016925;28;20091;-53
2024/01/07 02:10:48;;;;;;;18.03;7.33;;;1.90;99.90;;;;;;5034429;28;20063;-54
2024/01/07 02:13:14;;;;;;;18.07;6.53;;;1.90;99.90;;;;;;5034512;28;20030;-53
2024/01/07 02:15:39;;;;;;;20.60;7.93;;;1.90;99.90;;;;;;5016812;28;20029;-55
2024/01/07 02:18:05;;;;;;;16.70;6.77;;;1.90;99.90;;;;;;5034368;28;20506;-54
2024/01/07 02:20:31;;;;;;;18.50;6.27;;;2.00;99.90;;;;;;5033039;28;20398;-50
2024/01/07 02:22:57;;;;;;;17.87;7.13;;;2.00;99.90;;;;;;5033093;28;20044;-50
2024/01/07 02:25:24;;;;;;;18.50;7.03;;;2.00;99.90;;;;;;5033082;28;20116;-54
2024/01/07 02:27:49;;;;;;;18.43;7.57;;;2.00;99.90;;;;;;5016564;28;20025;-54
2024/01/07 02:30:15;;;;;;;17.83;6.97;;;2.00;99.90;;;;;;5016384;28;20056;-52
2024/01/07 02:32:41;;;;;;;19.60;6.73;;;2.00;99.90;;;;;;5032859;28;20026;-49
2024/01/07 02:35:06;;;;;;;20.37;7.50;;;1.90;99.90;;;;;;5016386;28;20450;-53
2024/01/07 02:37:34;;;;;;;18.37;7.20;;;1.90;99.90;;;;;;5034466;28;20071;-52
2024/01/07 02:39:59;;;;;;;19.27;7.27;;;1.80;99.90;;;;;;5033816;28;20032;-54
2024/01/07 02:42:25;;;;;;;18.70;7.23;;;1.80;99.90;;;;;;5033737;28;20029;-54
2024/01/07 02:44:50;;;;;;;19.93;7.37;;;1.90;99.90;;;;;;5033971;28;20038;-51
2024/01/07 02:47:16;;;;;;;22.67;8.20;;;1.90;99.90;;;;;;5032743;28;20037;-53
2024/01/07 02:49:43;;;;;;;23.03;7.60;;;1.90;99.90;;;;;;5033768;28;20144;-54
2024/01/07 02:52:08;;;;;;;21.00;7.43;;;1.90;99.90;;;;;;5016120;28;20529;-54
2024/01/07 02:54:34;;;;;;;19.27;8.00;;;1.90;99.90;;;;;;5033909;28;20034;-53
2024/01/07 02:56:59;;;;;;;23.70;8.60;;;2.00;99.90;;;;;;5033278;28;20038;-52
2024/01/07 02:59:25;;;;;;;20.90;8.53;;;2.00;99.90;;;;;;5033039;28;20034;-54
2024/01/07 03:01:51;;;;;;;23.57;8.93;;;1.90;99.90;;;;;;5016105;28;20397;-54
2024/01/07 03:04:16;;;;;;;21.27;8.13;;;1.90;99.90;;;;;;5033775;28;20025;-52
2024/01/07 03:06:42;;;;;;;22.87;7.80;;;1.90;99.90;;;;;;5033680;28;20052;-52
2024/01/07 03:09:10;;;;;;;18.97;8.10;;;1.90;99.90;;;;;;5033703;28;20110;-52
2024/01/07 03:11:40;;;;;;;21.87;7.43;;;1.90;99.90;;;;;;5033441;28;20052;-53
2024/01/07 03:14:06;;;;;;;20.47;8.20;;;1.80;99.90;;;;;;5033514;28;20120;-54
2024/01/07 03:16:32;;;;;;;17.80;7.97;;;1.80;99.90;;;;;;5033357;28;20116;-54
2024/01/07 03:18:57;;;;;;;19.17;7.87;;;1.80;99.90;;;;;;5031792;28;20075;-51
2024/01/07 03:21:23;;;;;;;16.97;8.10;;;1.90;99.90;;;;;;5033307;28;20064;-52
2024/01/07 03:23:50;;;;;;;18.40;7.07;;;1.80;99.90;;;;;;5033288;28;20030;-55
2024/01/07 03:26:18;;;;;;;18.27;6.40;;;1.80;99.90;;;;;;5033274;28;20029;-50
2024/01/07 03:28:44;;;;;;;16.60;6.67;;;1.70;99.90;;;;;;5032970;28;20387;-53
2024/01/07 03:31:12;;;;;;;16.20;6.27;;;1.70;99.90;;;;;;5033164;28;20386;-53
2024/01/07 03:33:39;;;;;;;15.97;6.03;;;1.80;99.90;;;;;;5033080;28;20033;-50
2024/01/07 03:36:12;;;;;;;16.93;6.70;;;1.80;99.90;;;;;;5033000;28;20029;-51
2024/01/07 03:38:39;;;;;;;14.50;6.23;;;1.70;99.90;;;;;;5032791;28;20175;-52
2024/01/07 03:41:05;;;;;;;14.67;5.97;;;1.70;99.90;;;;;;5032907;28;20029;-56
2024/01/07 03:43:31;;;;;;;14.90;5.80;;;1.70;99.90;;;;;;5032906;28;20417;-49
2024/01/07 03:45:57;;;;;;;12.07;5.97;;;1.70;99.90;;;;;;5032890;28;20036;-56
2024/01/07 03:48:22;;;;;;;14.43;6.23;;;1.70;99.90;;;;;;5032838;28;20087;-53
2024/01/07 03:50:48;;;;;;;14.50;6.53;;;1.70;99.90;;;;;;5014840;28;20033;-54
2024/01/07 03:53:15;;;;;;;15.90;6.47;;;1.60;99.90;;;;;;5032625;28;20079;-53
2024/01/07 03:55:40;;;;;;;14.53;6.33;;;1.70;99.90;;;;;;5032604;28;20036;-53
2024/01/07 03:58:06;;;;;;;14.13;5.90;;;1.60;99.90;;;;;;5032780;28;20021;-52
2024/01/07 04:00:32;;;;;;;17.43;6.37;;;1.60;99.90;;;;;;5032301;28;20037;-52
2024/01/07 04:02:58;;;;;;;14.73;6.17;;;1.60;99.90;;;;;;5032440;28;20521;-53
2024/01/07 04:05:23;;;;;;;15.10;6.23;;;1.60;99.90;;;;;;5032537;28;20033;-54
2024/01/07 04:07:49;;;;;;;15.40;7.03;;;1.50;99.90;;;;;;5032460;28;20025;-55
2024/01/07 04:10:18;;;;;;;14.77;6.57;;;1.50;99.90;;;;;;5032018;28;20036;-54
2024/01/07 04:12:44;;;;;;;15.75;7.07;;;1.50;99.90;;;;;;5032336;28;20033;-54
2024/01/07 04:15:11;;;;;;;14.33;6.70;;;1.50;99.90;;;;;;5032264;28;20032;-55
2024/01/07 04:17:36;;;;;;;15.13;6.47;;;1.50;99.90;;;;;;5032180;28;20102;-52
2024/01/07 04:20:02;;;;;;;13.23;6.33;;;1.50;99.90;;;;;;5032103;28;20022;-54
2024/01/07 04:22:27;;;;;;;15.17;6.67;;;1.50;99.90;;;;;;5014366;28;20030;-52
2024/01/07 04:24:53;;;;;;;18.33;8.07;;;1.50;99.90;;;;;;5032256;28;20029;-53
2024/01/07 04:27:19;;;;;;;20.33;7.07;;;1.50;99.90;;;;;;5032106;28;20055;-53
2024/01/07 04:29:44;;;;;;;22.20;8.10;;;1.50;99.90;;;;;;5031842;28;20033;-54
2024/01/07 04:32:10;;;;;;;17.10;7.33;;;1.50;99.90;;;;;;5032161;28;20037;-53
2024/01/07 04:34:36;;;;;;;20.80;8.37;;;1.40;99.90;;;;;;5031985;28;20471;-53
2024/01/07 04:37:01;;;;;;;14.97;7.63;;;1.50;99.90;;;;;;5031900;28;20056;-54
2024/01/07 04:39:27;;;;;;;15.80;7.37;;;1.50;99.90;;;;;;5031728;28;20038;-54
2024/01/07 04:41:53;;;;;;;16.77;6.33;;;1.40;99.90;;;;;;5031932;28;20029;-53
2024/01/07 04:44:19;;;;;;;18.53;6.77;;;1.40;99.90;;;;;;5031959;28;20061;-53
2024/01/07 04:46:44;;;;;;;13.37;6.50;;;1.40;99.90;;;;;;5032087;28;20437;-53
2024/01/07 04:49:10;;;;;;;16.37;5.83;;;1.40;99.90;;;;;;5031695;28;20113;-52
2024/01/07 04:51:39;;;;;;;14.53;6.10;;;1.40;99.90;;;;;;5031814;28;20033;-55
2024/01/07 04:54:05;;;;;;;12.63;5.80;;;1.40;99.90;;;;;;5031830;28;20033;-52
2024/01/07 04:56:31;;;;;;;15.07;5.97;;;1.40;99.90;;;;;;5031811;28;20037;-54
2024/01/07 04:58:57;;;;;;;12.10;5.20;;;1.40;99.90;;;;;;5031514;28;20022;-53
2024/01/07 05:01:23;;;;;;;13.90;5.50;;;1.40;99.90;;;;;;5031705;28;20037;-54
2024/01/07 05:03:48;;;;;;;11.40;5.33;;;1.40;99.90;;;;;;5031817;28;20026;-49
2024/01/07 05:06:14;;;;;;;12.60;5.27;;;1.40;99.90;;;;;;5031749;28;20045;-51
2024/01/07 05:08:43;;;;;;;15.50;5.80;;;1.30;99.90;;;;;;5031348;28;20072;-51
2024/01/07 05:11:08;;;;;;;12.97;5.43;;;1.40;99.90;;;;;;5031744;28;20029;-53
2024/01/07 05:13:35;;;;;;;11.37;5.23;;;1.40;99.90;;;;;;5031568;28;20029;-53
2024/01/07 05:16:01;;;;;;;15.23;5.30;;;1.40;99.90;;;;;;5031637;28;20040;-53
2024/01/07 05:18:27;;;;;;;13.00;6.03;;;1.30;99.90;;;;;;5031488;28;20030;-52
2024/01/07 05:20:52;;;;;;;11.63;5.10;;;1.30;99.90;;;;;;5032122;28;20021;-52
2024/01/07 05:23:19;;;;;;;14.33;5.97;;;1.30;99.90;;;;;;5035413;28;20613;-53
2024/01/07 05:25:45;;;;;;;17.50;6.03;;;1.40;99.90;;;;;;5035540;28;20025;-55
2024/01/07 05:28:12;;;;;;;12.57;5.67;;;1.40;99.90;;;;;;5035451;28;20029;-54
2024/01/07 05:30:38;;;;;;;15.27;5.37;;;1.40;99.90;;;;;;5035299;28;20033;-54
2024/01/07 05:33:04;;;;;;;12.47;5.20;;;1.30;99.90;;;;;;5035299;28;20478;-53
2024/01/07 05:35:30;;;;;;;15.60;5.87;;;1.30;99.90;;;;;;5035238;28;20059;-53
2024/01/07 05:37:56;;;;;;;14.20;6.30;;;1.30;99.90;;;;;;5035311;28;20104;-55
2024/01/07 05:40:22;;;;;;;13.77;6.73;;;1.30;99.90;;;;;;5035053;28;20027;-54
2024/01/07 05:42:47;;;;;;;14.97;6.03;;;1.20;99.90;;;;;;5035081;28;20060;-54
2024/01/07 05:45:13;;;;;;;15.47;6.23;;;1.20;99.90;;;;;;5035187;28;20496;-52
2024/01/07 05:47:40;;;;;;;16.30;7.23;;;1.20;99.90;;;;;;5035149;28;20025;-52
2024/01/07 05:50:06;;;;;;;14.93;6.07;;;1.30;99.90;;;;;;5034826;28;20079;-49
2024/01/07 05:52:32;;;;;;;17.03;6.37;;;1.30;99.90;;;;;;5034991;28;20051;-54
2024/01/07 05:54:58;;;;;;;14.07;6.40;;;1.30;99.90;;;;;;5017252;28;20017;-53
2024/01/07 05:57:24;;;;;;;15.30;6.70;;;1.30;99.90;;;;;;5034848;28;20032;-52
2024/01/07 05:59:50;;;;;;;11.67;5.33;;;1.30;99.90;;;;;;5034691;28;20025;-53
2024/01/07 06:02:17;;;;;;;13.70;6.60;;;1.30;99.90;;;;;;5034822;28;20028;-55
2024/01/07 06:04:43;;;;;;;17.40;6.73;;;1.30;99.90;;;;;;5035247;28;20025;-51
2024/01/07 06:07:08;;;;;;;16.30;6.83;;;1.30;99.90;;;;;;5034860;28;20025;-53
2024/01/07 06:09:34;;;;;;;18.63;6.93;;;1.20;99.90;;;;;;5034460;28;20483;-53
2024/01/07 06:12:00;;;;;;;14.80;6.17;;;1.20;99.90;;;;;;5034608;28;20111;-53
2024/01/07 06:14:25;;;;;;;13.57;6.23;;;1.20;99.90;;;;;;5034600;28;20033;-53
2024/01/07 06:16:52;;;;;;;16.23;6.70;;;1.20;99.90;;;;;;5034539;28;20025;-52
2024/01/07 06:19:18;;;;;;;14.70;5.83;;;1.20;99.90;;;;;;5034160;28;20041;-55
2024/01/07 06:21:43;;;;;;;17.37;6.57;;;1.20;99.90;;;;;;5034460;28;20475;-54
2024/01/07 06:24:10;;;;;;;14.73;6.50;;;1.20;99.90;;;;;;5034457;28;20080;-52
2024/01/07 06:26:36;;;;;;;16.03;6.23;;;1.10;99.90;;;;;;5034363;28;20087;-54
2024/01/07 06:29:01;;;;;;;15.73;6.40;;;1.10;99.90;;;;;;5034258;28;20029;-54
2024/01/07 06:31:27;;;;;;;16.30;6.30;;;1.10;99.90;;;;;;5034166;28;20025;-53
2024/01/07 06:33:55;;;;;;;14.80;6.40;;;1.10;99.90;;;;;;5034263;28;20033;-53
2024/01/07 06:36:21;;;;;;;11.80;5.43;;;1.20;99.90;;;;;;5034127;28;20033;-53
2024/01/07 06:38:48;;;;;;;15.60;6.90;;;1.10;99.90;;;;;;5033941;28;20030;-53
2024/01/07 06:41:14;;;;;;;16.03;6.93;;;1.10;99.90;;;;;;5034075;28;20037;-54
2024/01/07 06:43:40;;;;;;;19.10;6.43;;;1.10;99.90;;;;;;5034037;28;20108;-53
2024/01/07 06:46:05;;;;;;;16.87;5.97;;;1.10;99.90;;;;;;5034031;28;20038;-51
2024/01/07 06:48:31;;;;;;;16.63;6.07;;;1.10;99.90;;;;;;5033929;28;20034;-53
2024/01/07 06:50:57;;;;;;;16.10;6.60;;;1.10;99.90;;;;;;5033751;28;20029;-54
2024/01/07 06:53:23;;;;;;;17.73;6.40;;;1.10;99.90;;;;;;5033813;28;20425;-54
2024/01/07 06:55:49;;;;;;;16.80;6.20;;;1.10;99.90;;;;;;5033677;28;20026;-51
2024/01/07 06:58:15;;;;;;;16.23;6.73;;;1.20;99.90;;;;;;5033698;28;20033;-53
2024/01/07 07:00:40;;;;;;;12.90;5.60;;;1.20;99.90;;;;;;5015911;28;20029;-53
2024/01/07 07:03:06;;;;;;;14.87;6.30;;;1.20;99.90;;;;;;5033562;28;20033;-53
2024/01/07 07:05:32;;;;;;;14.97;5.37;;;1.20;99.90;;;;;;5033621;28;20463;-54
2024/01/07 07:07:58;;;;;;;11.97;5.83;;;1.20;99.90;;;;;;5033463;28;20032;-54
2024/01/07 07:10:23;;;;;;;13.70;5.77;;;1.20;99.90;;;;;;5033212;28;20044;-53
2024/01/07 07:12:50;;;;;;;12.03;5.13;;;1.20;99.90;;;;;;5033402;28;20497;-53
2024/01/07 07:15:16;;;;;;;13.43;5.73;;;1.10;99.90;;;;;;5033447;28;20040;-54
2024/01/07 07:17:42;;;;;;;15.50;6.30;;;1.10;99.90;;;;;;5033132;28;20044;-54
2024/01/07 07:20:08;;;;;;;13.33;6.13;;;1.00;99.90;;;;;;5033157;28;20025;-53
2024/01/07 07:22:34;;;;;;;11.73;5.50;;;1.00;99.90;;;;;;5033201;28;20025;-53
2024/01/07 07:25:00;;;;;;;14.03;5.63;;;1.10;99.90;;;;;;5033242;28;20029;-54
2024/01/07 07:27:26;;;;;;;12.53;6.00;;;1.10;99.90;;;;;;5033245;28;20104;-52
2024/01/07 07:29:51;;;;;;;12.60;5.37;;;1.10;99.90;;;;;;5032953;28;20058;-53
2024/01/07 07:32:17;;;;;;;13.70;5.50;;;1.10;99.90;;;;;;5032997;28;20041;-54
2024/01/07 07:34:43;;;;;;;14.93;6.00;;;1.00;99.90;;;;;;5033015;28;20086;-54
2024/01/07 07:37:09;;;;;;;12.37;5.20;;;1.00;99.90;;;;;;5032965;28;20033;-49
2024/01/07 07:39:35;;;;;;;14.00;5.90;;;1.00;99.90;;;;;;5032627;28;20029;-54
2024/01/07 07:42:01;;;;;;;14.73;5.80;;;1.00;99.90;;;;;;5015231;28;20029;-53
2024/01/07 07:44:27;;;;;;;17.07;6.57;;;1.00;99.90;;;;;;5032485;28;20025;-54
2024/01/07 07:46:52;;;;;;;12.27;6.27;;;1.00;99.90;;;;;;5032844;28;20022;-54
2024/01/07 07:49:18;;;;;;;13.67;6.27;;;0.90;99.90;;;;;;5032527;28;20473;-53
2024/01/07 07:51:44;;;;;;;14.33;6.27;;;1.00;99.90;;;;;;5032687;28;20099;-50
2024/01/07 07:54:09;;;;;;;13.40;5.87;;;0.90;99.90;;;;;;5032907;28;20128;-54
2024/01/07 07:56:35;;;;;;;12.53;6.10;;;0.90;99.90;;;;;;5032648;28;20112;-54
2024/01/07 07:59:02;;;;;;;15.73;6.30;;;1.00;99.90;;;;;;5032448;28;20033;-55
2024/01/07 08:01:28;;;;;;;11.27;5.20;;;1.00;99.90;;;;;;5032460;28;20029;-54
2024/01/07 08:03:54;;;;;;;13.40;5.47;;;1.00;99.90;;;;;;5032547;28;20128;-55
2024/01/07 08:06:19;;;;;;;11.53;6.00;;;1.00;99.90;;;;;;5032488;28;20037;-55
2024/01/07 08:08:45;;;;;;;13.70;5.53;;;1.00;99.90;;;;;;5032219;28;20026;-52
2024/01/07 08:11:11;;;;;;;13.00;5.80;;;1.00;99.90;;;;;;5032622;28;20080;-53
2024/01/07 08:13:37;;;;;;;12.13;4.73;;;1.00;99.90;;;;;;5032539;28;20053;-53
2024/01/07 08:16:05;;;;;;;12.93;5.63;;;1.00;99.90;;;;;;5032236;28;20029;-53
2024/01/07 08:18:30;;;;;;;11.67;5.13;;;0.90;99.90;;;;;;5014619;28;20029;-55
2024/01/07 08:20:56;;;;;;;14.70;4.67;;;0.90;99.90;;;;;;5032266;28;20025;-51
2024/01/07 08:23:22;;;;;;;14.90;5.73;;;0.90;99.90;;;;;;5032162;28;20034;-55
2024/01/07 08:25:48;;;;;;;12.87;4.67;;;0.90;99.90;;;;;;5032221;28;20051;-53
2024/01/07 08:28:14;;;;;;;11.20;5.50;;;0.90;99.90;;;;;;5032175;28;20033;-53
2024/01/07 08:30:39;;;;;;;12.83;5.80;;;0.80;99.90;;;;;;5031922;28;20038;-54
2024/01/07 08:33:05;;;;;;;12.27;5.97;;;0.80;99.90;;;;;;5032180;28;20096;-51
2024/01/07 08:35:30;;;;;;;14.77;4.97;;;0.80;99.90;;;;;;5032130;28;20022;-53
2024/01/07 08:37:56;;;;;;;11.63;5.40;;;0.80;99.90;;;;;;5032072;28;20494;-55
2024/01/07 08:40:22;;;;;;;12.57;5.77;;;0.80;99.90;;;;;;5031882;28;20026;-55
2024/01/07 08:42:47;;;;;;;12.30;4.77;;;0.80;99.90;;;;;;5032004;28;20033;-54
2024/01/07 08:45:13;;;;;;;11.50;4.97;;;0.70;99.90;;;;;;5031911;28;20110;-54
2024/01/07 08:47:39;;;;;;;12.67;5.43;;;0.60;99.90;;;;;;5030601;28;20044;-54
2024/01/07 08:50:05;;;;;;;12.03;5.13;;;0.50;99.90;;;;;;5031709;28;20034;-51
2024/01/07 08:52:31;;;;;;;13.30;5.97;;;0.60;99.90;;;;;;5032039;28;20351;-54
2024/01/07 08:54:56;;;;;;;12.93;5.07;;;0.60;99.90;;;;;;5031468;28;20405;-54
2024/01/07 08:57:22;;;;;;;14.10;5.40;;;0.60;99.90;;;;;;5031412;28;20030;-54
2024/01/07 08:59:48;;;;;;;9.07;4.37;;;0.70;99.90;;;;;;5031967;28;20483;-50
2024/01/07 09:02:13;;;;;;;15.40;6.10;;;0.70;99.90;;;;;;5031860;28;20271;-54
2024/01/07 09:04:39;;;;;;;13.33;5.43;;;0.70;99.90;;;;;;5031849;28;20072;-54
2024/01/07 09:07:05;;;;;;;12.63;5.80;;;0.70;99.90;;;;;;5031800;28;20071;-53
2024/01/07 09:09:30;;;;;;;15.00;5.07;;;0.70;99.90;;;;;;5031482;28;20079;-54
2024/01/07 09:11:57;;;;;;;12.47;5.07;;;0.70;99.90;;;;;;5032080;28;20125;-54
2024/01/07 09:14:25;;;;;;;13.73;5.50;;;0.70;99.90;;;;;;5031591;28;20048;-54
2024/01/07 09:16:50;;;;;;;13.20;5.40;;;0.80;99.90;;;;;;5031623;28;20140;-55
2024/01/07 09:19:17;;;;;;;10.37;5.07;;;0.90;99.90;;;;;;5031487;28;20482;-54
2024/01/07 09:21:43;;;;;;;10.67;5.37;;;0.90;99.90;;;;;;5014002;28;20072;-53
2024/01/07 09:24:09;;;;;;;14.73;5.60;;;0.90;99.90;;;;;;5031550;28;20025;-52
2024/01/07 09:26:34;;;;;;;9.67;5.10;;;0.80;99.90;;;;;;5031567;28;20036;-54
2024/01/07 09:29:01;;;;;;;13.60;4.80;;;0.80;99.90;;;;;;5031310;28;20021;-49
2024/01/07 09:31:27;;;;;;;13.37;5.30;;;0.70;99.90;;;;;;5031478;28;20029;-55
2024/01/07 09:33:52;;;;;;;9.77;4.97;;;0.70;99.90;;;;;;5031649;28;20036;-54
2024/01/07 09:36:18;;;;;;;8.07;4.80;;;0.70;99.90;;;;;;5031576;28;20032;-52
2024/01/07 09:38:44;;;;;;;12.90;5.13;;;0.70;99.90;;;;;;5031285;28;20405;-53
2024/01/07 09:41:09;;;;;;;19.03;5.97;;;0.70;99.90;;;;;;5031424;28;20033;-54
2024/01/07 09:43:35;;;;;;;9.43;4.50;;;0.70;99.90;;;;;;5031310;28;20417;-55
2024/01/07 09:46:02;;;;;;;10.57;5.53;;;0.70;99.90;;;;;;5031532;28;20478;-54
2024/01/07 09:48:28;;;;;;;10.30;4.77;;;0.60;99.90;;;;;;5031303;28;20034;-51
2024/01/07 09:50:56;;;;;;;11.80;4.80;;;0.70;99.90;;;;;;5031174;28;20029;-55
2024/01/07 09:53:25;;;;;;;12.67;4.90;;;0.60;99.90;;;;;;5031347;28;20032;-52
2024/01/07 09:56:15;;;;;;;10.65;4.85;;;0.60;99.90;;;;;;5031561;28;20394;-52
2024/01/07 09:58:42;;;;;;;9.63;4.47;;;0.70;99.90;;;;;;5031012;28;20030;-50
2024/01/07 10:01:08;;;;;;;9.73;4.60;;;0.70;99.90;;;;;;5031203;28;20038;-54
2024/01/07 10:03:34;;;;;;;8.00;4.37;;;0.70;99.90;;;;;;5031125;28;20029;-54
2024/01/07 10:06:00;;;;;;;12.37;4.53;;;0.70;99.90;;;;;;5031277;28;20029;-53
2024/01/07 10:08:25;;;;;;;8.43;3.43;;;0.70;99.90;;;;;;5034094;28;20090;-52
2024/01/07 10:10:51;;;;;;;11.63;4.53;;;0.80;99.90;;;;;;5034585;28;20029;-54
2024/01/07 10:13:16;;;;;;;9.63;4.50;;;0.80;99.90;;;;;;5034510;28;20037;-54
2024/01/07 10:15:42;;;;;;;8.93;4.23;;;0.90;99.90;;;;;;5034606;28;20048;-53
2024/01/07 10:18:08;;;;;;;8.93;4.33;;;0.90;99.90;;;;;;5034427;28;20116;-54
2024/01/07 10:20:34;;;;;;;10.63;4.03;;;0.90;99.90;;;;;;5034358;28;20029;-54
2024/01/07 10:23:03;;;;;;;8.53;4.20;;;1.00;99.90;;;;;;5034419;28;20025;-55
2024/01/07 10:25:32;;;;;;;10.43;4.57;;;1.00;99.90;;;;;;5034538;28;20034;-55
2024/01/07 10:28:01;;;;;;;9.70;3.88;;;1.00;99.90;;;;;;5034354;28;20048;-53
2024/01/07 10:30:27;;;;;;;10.35;4.45;;;0.90;99.90;;;;;;5016639;28;20040;-54
2024/01/07 10:32:57;;;;;;;8.27;4.10;;;1.00;99.90;;;;;;5034257;28;20033;-51
2024/01/07 10:35:37;;;;;;;8.37;3.90;;;0.90;99.90;;;;;;5034168;28;20052;-55
2024/01/07 10:38:03;;;;;;;;;;;1.00;99.90;;;;;;5034862;28;20044;-55
2024/01/07 10:40:31;;;;;;;7.47;3.50;;;1.00;99.90;;;;;;5016314;28;19909;-50
2024/01/07 10:42:57;;;;;;;6.20;3.50;;;1.00;99.90;;;;;;5034082;28;20030;-55
2024/01/07 10:45:23;;;;;;;10.40;4.37;;;1.00;99.90;;;;;;5034084;28;20137;-55
2024/01/07 10:47:53;;;;;;;6.47;3.17;;;1.00;99.90;;;;;;5034082;28;20108;-54
2024/01/07 10:50:21;;;;;;;8.90;3.00;;;0.90;99.90;;;;;;5033732;28;20096;-55
2024/01/07 10:52:51;;;;;;;9.97;3.67;;;1.00;99.90;;;;;;5033837;28;20064;-54
2024/01/07 10:55:18;;;;;;;8.10;3.57;;;1.00;99.90;;;;;;5033980;28;20033;-53
2024/01/07 10:57:49;;;;;;;8.50;3.67;;;1.00;99.90;;;;;;5033865;28;20033;-54
2024/01/07 11:00:19;;;;;;;12.10;4.13;;;1.00;99.90;;;;;;5033652;28;20065;-54
2024/01/07 11:02:55;;;;;;;6.60;3.60;;;0.90;99.90;;;;;;5015904;28;20065;-54
2024/01/07 11:05:36;;;;;;;7.90;3.40;;;0.90;99.90;;;;;;5033768;28;20398;-55
2024/01/07 11:08:07;;;;;;;9.80;3.53;;;0.90;99.90;;;;;;5033667;28;20030;-55
2024/01/07 11:10:45;;;;;;;6.97;3.00;;;0.90;99.90;;;;;;5033470;28;20470;-52
2024/01/07 11:13:31;;;;;;;10.83;4.07;;;0.80;99.90;;;;;;5033865;28;20033;-55
2024/01/07 11:15:57;;;;;;;9.87;3.63;;;0.70;99.90;;;;;;5033475;28;20083;-55
2024/01/07 11:18:23;;;;;;;7.73;3.07;;;0.70;99.90;;;;;;5032576;28;20445;-54
2024/01/07 11:20:49;;;;;;;6.20;2.83;;;0.70;99.90;;;;;;5033250;28;20026;-52
2024/01/07 11:23:29;;;;;;;7.07;2.67;;;0.70;99.90;;;;;;5033210;28;20056;-54
2024/01/07 11:25:57;;;;;;;4.60;2.67;;;0.70;99.90;;;;;;5033364;28;20033;-54
2024/01/07 11:28:52;;;;;;;6.10;2.47;;;0.80;99.90;;;;;;5033255;28;20467;-54
2024/01/07 11:31:20;;;;;;;5.43;2.57;;;0.70;99.90;;;;;;5033197;28;20429;-53
2024/01/07 11:33:48;;;;;;;7.00;2.53;;;0.70;99.90;;;;;;5032975;28;20048;-52
2024/01/07 11:36:15;;;;;;;7.77;3.17;;;0.70;99.90;;;;;;5033096;28;20032;-50
2024/01/07 11:38:45;;;;;;;6.53;2.70;;;0.70;99.90;;;;;;5032809;28;20029;-50
2024/01/07 11:41:14;;;;;;;5.43;2.50;;;0.70;99.90;;;;;;5033096;28;20052;-55
2024/01/07 11:43:58;;;;;;;5.95;2.47;;;0.60;99.90;;;;;;5032920;28;20034;-54
2024/01/07 11:46:24;;;;;;;7.63;2.43;;;0.60;99.90;;;;;;5032847;28;20075;-52
2024/01/07 11:48:57;;;;;;;6.07;2.87;;;0.60;99.90;;;;;;5032551;28;20434;-53
2024/01/07 11:51:25;;;;;;;9.07;3.20;;;0.60;99.90;;;;;;5032789;28;20053;-51
2024/01/07 11:53:50;;;;;;;6.33;2.77;;;0.70;99.90;;;;;;5032742;28;20076;-54
2024/01/07 11:56:16;;;;;;;5.43;2.43;;;0.60;99.90;;;;;;5032592;28;20061;-54
2024/01/07 11:58:42;;;;;;;6.83;2.53;;;0.60;99.90;;;;;;5032666;28;20426;-52
2024/01/07 12:01:08;;;;;;;5.50;2.70;;;0.60;99.90;;;;;;5032908;28;20052;-55
2024/01/07 12:03:33;;;;;;;5.43;2.27;;;0.60;99.90;;;;;;5032513;28;20053;-52
2024/01/07 12:05:59;;;;;;;7.80;2.30;;;0.50;99.90;;;;;;5032544;28;20533;-52
2024/01/07 12:08:25;;;;;;;5.77;2.57;;;0.60;99.90;;;;;;5032557;28;20175;-55
2024/01/07 12:10:51;;;;;;;6.40;2.53;;;0.50;99.90;;;;;;5032334;28;20037;-54
2024/01/07 12:13:17;;;;;;;6.17;2.67;;;0.50;99.90;;;;;;5032398;28;20029;-55
2024/01/07 12:15:43;;;;;;;8.27;2.33;;;0.50;99.90;;;;;;5032444;28;20025;-52
2024/01/07 12:18:09;;;;;;;4.53;2.40;;;0.50;99.90;;;;;;5032321;28;20029;-55
2024/01/07 12:20:35;;;;;;;7.20;2.40;;;0.50;99.90;;;;;;5032252;28;20031;-51
2024/01/07 12:23:10;;;;;;;4.20;2.17;;;0.50;99.90;;;;;;5032310;28;20030;-52
2024/01/07 12:25:36;;;;;;;4.53;2.03;;;0.50;99.90;;;;;;5032386;28;20037;-54
2024/01/07 12:28:02;;;;;;;2.80;1.60;;;0.30;99.90;;;;;;5032153;28;20048;-53
2024/01/07 12:30:30;;;;;;;7.17;2.43;;;0.30;99.90;;;;;;5031964;28;20104;-51
2024/01/07 12:32:56;;;;;;;5.63;2.30;;;0.20;99.90;;;;;;5032011;28;20152;-55
2024/01/07 12:35:25;;;;;;;9.40;2.77;;;0.10;99.90;;;;;;5032328;28;20120;-54
2024/01/07 12:37:52;;;;;;;6.22;2.70;;;0.10;99.90;;;;;;5032073;28;20033;-55
2024/01/07 12:40:17;;;;;;;6.17;2.87;;;0.00;99.90;;;;;;5031867;28;20030;-54
2024/01/07 12:42:46;;;;;;;6.50;3.07;;;0.00;99.90;;;;;;5031894;28;20032;-55
2024/01/07 12:45:15;;;;;;;4.23;2.53;;;-0.10;99.90;;;;;;5032075;28;20037;-54